Time;durP1;ratioP1;P1;durP2;ratioP2;P2;SDS_P1;SDS_P2;PMS_P1;PMS_P2;Temp;Humidity;BMP_temperature;BMP_pressure;BME280_temperature;BME280_humidity;BME280_pressure;Samples;Min_cycle;Max_cycle;Signal;HPM_P1;HPM_P2
2022/12/15 00:39:57;;;;;;;31.87;18.13;;;-3.30;99.90;;;;;;5028895;28;40521;-79
2022/12/15 00:42:27;;;;;;;35.03;20.57;;;-3.30;99.90;;;;;;5033669;28;37226;-80
2022/12/15 00:44:54;;;;;;;27.70;18.30;;;-3.30;99.90;;;;;;5028982;28;38854;-79
2022/12/15 00:47:21;;;;;;;28.40;18.07;;;-3.30;99.90;;;;;;5028278;28;37094;-79
2022/12/15 01:20:17;;;;;;;27.33;15.10;;;-3.80;99.90;;;;;;5027250;28;38414;-79
2022/12/15 01:22:50;;;;;;;25.37;15.53;;;-3.70;99.90;;;;;;5024475;28;39075;-80
2022/12/15 01:25:18;;;;;;;27.42;14.40;;;-3.60;99.90;;;;;;5027787;28;39650;-79
2022/12/15 01:27:45;;;;;;;28.10;15.73;;;-3.60;99.90;;;;;;5033495;28;38997;-79
2022/12/15 01:30:15;;;;;;;29.50;16.77;;;-3.40;99.90;;;;;;5038401;28;38578;-79
2022/12/15 01:32:41;;;;;;;27.93;15.23;;;-3.20;99.90;;;;;;5025576;28;37441;-79
2022/12/15 01:35:09;;;;;;;30.23;17.03;;;-3.10;99.90;;;;;;5028557;28;39121;-79
2022/12/15 01:37:36;;;;;;;29.47;16.23;;;-3.20;99.90;;;;;;5032664;28;39030;-79
2022/12/15 01:42:48;;;;;;;27.87;15.90;;;-3.30;99.90;;;;;;5022468;28;49573;-79
2022/12/15 01:45:23;;;;;;;28.03;17.17;;;-3.40;99.90;;;;;;5021262;28;39725;-79
2022/12/15 01:48:11;;;;;;;27.33;16.03;;;-3.10;99.90;;;;;;5026015;28;38602;-79
2022/12/15 01:50:56;;;;;;;30.13;16.63;;;-3.20;99.90;;;;;;5028983;28;46999;-79
2022/12/15 01:53:22;;;;;;;29.33;14.83;;;-3.30;99.90;;;;;;5027831;28;37721;-79
2022/12/15 01:55:49;;;;;;;25.87;15.97;;;-3.30;99.90;;;;;;5024408;28;38761;-79
2022/12/15 01:58:18;;;;;;;26.70;14.73;;;-3.30;99.90;;;;;;5028422;28;38510;-80
2022/12/15 02:03:21;;;;;;;23.90;14.30;;;-3.50;99.90;;;;;;5226786;22;20053;-79
2022/12/15 02:05:47;;;;;;;28.73;15.13;;;-3.60;99.90;;;;;;5037353;28;37252;-79
2022/12/15 02:08:13;;;;;;;28.70;16.13;;;-3.60;99.90;;;;;;5031947;28;38150;-79
2022/12/15 02:11:01;;;;;;;24.10;13.70;;;-3.80;99.90;;;;;;5033535;28;37608;-79
2022/12/15 02:13:39;;;;;;;26.90;15.13;;;-3.80;99.90;;;;;;5038004;28;39025;-79
2022/12/15 02:16:17;;;;;;;25.90;17.10;;;-3.80;99.90;;;;;;5033780;28;38527;-78
2022/12/15 02:18:58;;;;;;;24.63;14.77;;;-3.90;99.90;;;;;;5033777;27;38399;-81
2022/12/15 02:21:56;;;;;;;21.47;13.50;;;-3.90;99.90;;;;;;5029184;28;37647;-79
2022/12/15 02:24:43;;;;;;;26.00;14.50;;;-4.00;99.90;;;;;;5034184;28;39051;-79
2022/12/15 02:27:38;;;;;;;29.80;15.07;;;-4.10;99.90;;;;;;5039948;28;39023;-79
2022/12/15 02:30:22;;;;;;;24.07;13.67;;;-4.10;99.90;;;;;;5033812;28;38229;-78
2022/12/15 02:33:05;;;;;;;25.60;14.33;;;-4.00;99.90;;;;;;5035452;28;48371;-79
2022/12/15 02:35:51;;;;;;;27.80;15.23;;;-4.00;99.90;;;;;;5043543;28;46770;-79
2022/12/15 02:38:37;;;;;;;29.57;15.47;;;-4.10;99.90;;;;;;5030182;28;38425;-79
2022/12/15 02:41:05;;;;;;;28.33;14.17;;;-4.10;99.90;;;;;;5038552;28;36844;-80
2022/12/15 02:43:35;;;;;;;27.27;15.57;;;-4.10;99.90;;;;;;5034426;28;47541;-79
2022/12/15 02:46:23;;;;;;;24.67;14.23;;;-4.10;99.90;;;;;;5039141;28;37236;-79
2022/12/15 02:49:26;;;;;;;28.27;13.50;;;-4.10;99.90;;;;;;5037419;28;46870;-79
2022/12/15 02:52:21;;;;;;;28.92;15.38;;;-4.00;99.90;;;;;;5032306;28;47403;-78
2022/12/15 02:55:17;;;;;;;27.07;14.90;;;-3.90;99.90;;;;;;5034434;28;47149;-79
2022/12/15 02:58:00;;;;;;;26.97;16.17;;;-3.90;99.90;;;;;;5035104;28;48384;-79
2022/12/15 03:00:27;;;;;;;30.90;15.88;;;-3.80;99.90;;;;;;5035610;28;38518;-79
2022/12/15 03:02:54;;;;;;;28.67;16.03;;;-3.80;99.90;;;;;;5042429;28;36884;-79
2022/12/15 03:05:23;;;;;;;28.40;15.77;;;-3.80;99.90;;;;;;5036264;28;37967;-79
2022/12/15 03:07:51;;;;;;;26.73;15.77;;;-3.90;99.90;;;;;;5034253;28;39506;-78
2022/12/15 03:10:20;;;;;;;28.33;14.73;;;-3.90;99.90;;;;;;5037529;28;39335;-79
2022/12/15 03:12:47;;;;;;;25.73;14.60;;;-3.90;99.90;;;;;;5033596;28;38450;-79
2022/12/15 03:15:13;;;;;;;25.27;14.90;;;-4.00;99.90;;;;;;5027913;28;36365;-79
2022/12/15 03:17:39;;;;;;;22.40;13.63;;;-4.00;99.90;;;;;;5035408;28;39504;-79
2022/12/15 03:20:05;;;;;;;30.87;15.23;;;-4.00;99.90;;;;;;5036354;28;38844;-79
2022/12/15 03:22:31;;;;;;;24.30;13.27;;;-4.00;99.90;;;;;;5038595;28;34985;-79
2022/12/15 03:24:57;;;;;;;26.77;15.67;;;-4.00;99.90;;;;;;5034948;28;37522;-79
2022/12/15 03:27:23;;;;;;;24.33;14.73;;;-4.00;99.90;;;;;;5033080;28;40405;-79
2022/12/15 03:29:49;;;;;;;30.30;16.73;;;-3.80;99.90;;;;;;5025920;28;35848;-79
2022/12/15 03:32:16;;;;;;;25.10;15.50;;;-3.80;99.90;;;;;;5026379;27;38369;-79
2022/12/15 03:34:42;;;;;;;28.93;15.73;;;-3.70;99.90;;;;;;5037944;28;36232;-80
2022/12/15 03:37:08;;;;;;;31.20;16.57;;;-3.60;99.90;;;;;;5040156;28;38242;-79
2022/12/15 03:39:34;;;;;;;25.77;14.90;;;-3.50;99.90;;;;;;5032538;28;38334;-80
2022/12/15 03:42:00;;;;;;;26.60;15.20;;;-3.50;99.90;;;;;;5028148;28;38897;-80
2022/12/15 03:44:26;;;;;;;24.67;14.10;;;-3.50;99.90;;;;;;5025098;28;37433;-79
2022/12/15 03:46:52;;;;;;;27.63;15.13;;;-3.60;99.90;;;;;;5029241;28;37670;-79
2022/12/15 03:49:18;;;;;;;26.53;14.23;;;-3.60;99.90;;;;;;5028987;28;38702;-79
2022/12/15 03:51:44;;;;;;;26.00;13.80;;;-3.60;99.90;;;;;;5037126;28;37406;-80
2022/12/15 03:54:13;;;;;;;25.60;13.93;;;-3.60;99.90;;;;;;5038436;28;36320;-79
2022/12/15 03:56:43;;;;;;;25.93;14.37;;;-3.60;99.90;;;;;;5036075;28;37486;-80
2022/12/15 03:59:09;;;;;;;27.10;15.77;;;-3.70;99.90;;;;;;5036377;28;40444;-79
2022/12/15 04:01:36;;;;;;;23.63;15.00;;;-3.70;99.90;;;;;;5035089;28;37578;-79
2022/12/15 04:04:03;;;;;;;24.37;13.97;;;-3.80;99.90;;;;;;5036398;28;37849;-79
2022/12/15 04:06:30;;;;;;;24.50;15.07;;;-3.60;99.90;;;;;;5033830;28;48806;-80
2022/12/15 04:08:56;;;;;;;26.57;14.47;;;-3.60;99.90;;;;;;5033337;28;37215;-80
2022/12/15 04:11:22;;;;;;;27.70;14.87;;;-3.70;99.90;;;;;;5038778;28;38452;-80
2022/12/15 04:13:48;;;;;;;27.13;15.13;;;-3.80;99.90;;;;;;5041317;28;36364;-80
2022/12/15 04:16:14;;;;;;;22.10;13.83;;;-3.80;99.90;;;;;;5032863;28;39625;-80
2022/12/15 04:18:40;;;;;;;27.27;14.10;;;-3.80;99.90;;;;;;5037040;28;39364;-79
2022/12/15 04:21:07;;;;;;;28.77;14.97;;;-3.80;99.90;;;;;;5033815;28;38950;-79
2022/12/15 04:23:33;;;;;;;25.10;13.53;;;-3.80;99.90;;;;;;5035643;28;37299;-80
2022/12/15 05:32:17;;;;;;;29.57;15.67;;;-3.40;99.90;;;;;;5036295;28;39137;-79
2022/12/15 05:34:43;;;;;;;28.53;17.03;;;-3.20;99.90;;;;;;5034734;28;38446;-80
2022/12/15 05:37:09;;;;;;;27.27;16.40;;;-3.10;99.90;;;;;;5034205;28;37519;-80
2022/12/15 05:39:35;;;;;;;23.53;15.57;;;-3.20;99.90;;;;;;5040681;28;37260;-79
2022/12/15 05:42:02;;;;;;;30.50;18.03;;;-3.10;99.90;;;;;;5033000;28;37889;-79
2022/12/15 05:44:28;;;;;;;30.53;18.80;;;-2.90;99.90;;;;;;5031495;28;47220;-79
2022/12/15 05:46:54;;;;;;;25.40;16.80;;;-2.90;99.90;;;;;;5042008;28;36953;-80
2022/12/15 05:49:22;;;;;;;30.27;17.13;;;-3.10;99.90;;;;;;5034592;28;37562;-80
2022/12/15 05:51:48;;;;;;;30.93;17.57;;;-3.20;99.90;;;;;;5041916;28;37716;-80
2022/12/15 05:54:17;;;;;;;28.80;17.17;;;-3.20;99.90;;;;;;5035957;28;36977;-79
2022/12/15 05:56:44;;;;;;;29.73;17.80;;;-3.30;99.90;;;;;;5034069;28;36516;-80
2022/12/15 05:59:16;;;;;;;29.40;17.37;;;-3.30;99.90;;;;;;5060483;28;38334;-81
2022/12/15 06:01:42;;;;;;;22.98;14.98;;;-3.20;99.90;;;;;;5077635;22;39303;-79
2022/12/15 06:04:11;;;;;;;29.50;18.23;;;-3.40;99.90;;;;;;5016540;28;36996;-78
2022/12/15 06:06:37;;;;;;;28.37;18.40;;;-3.50;99.90;;;;;;5014314;28;39238;-78
2022/12/15 06:09:04;;;;;;;29.50;17.77;;;-3.40;99.90;;;;;;5014254;28;38273;-79
2022/12/15 06:11:30;;;;;;;30.67;17.73;;;-3.60;99.90;;;;;;5020152;28;39610;-79
2022/12/15 06:13:57;;;;;;;28.37;17.30;;;-3.50;99.90;;;;;;5022190;28;39744;-79
2022/12/15 06:16:26;;;;;;;35.13;19.37;;;-3.60;99.90;;;;;;5016497;28;38310;-79
2022/12/15 06:18:59;;;;;;;29.60;17.43;;;-3.60;99.90;;;;;;5023834;28;35887;-79
2022/12/15 06:21:29;;;;;;;32.33;17.77;;;-3.70;99.90;;;;;;5022198;28;39237;-79
2022/12/15 06:23:56;;;;;;;29.83;17.70;;;-3.70;99.90;;;;;;5020018;28;38664;-79
2022/12/15 06:26:25;;;;;;;33.37;19.27;;;-3.60;99.90;;;;;;5016280;28;39837;-79
2022/12/15 06:28:53;;;;;;;41.93;23.70;;;-3.60;99.90;;;;;;5019491;28;39342;-79
2022/12/15 06:31:24;;;;;;;33.77;20.13;;;-3.60;99.90;;;;;;5022303;28;39517;-79
2022/12/15 06:33:51;;;;;;;30.40;19.40;;;-3.60;99.90;;;;;;5018470;28;38660;-79
2022/12/15 06:36:25;;;;;;;36.20;21.53;;;-3.50;99.90;;;;;;5030953;28;37407;-80
2022/12/15 06:38:51;;;;;;;33.63;18.83;;;-3.50;99.90;;;;;;5045128;28;38829;-80
2022/12/15 06:41:29;;;;;;;35.67;21.00;;;-3.70;99.90;;;;;;5046273;28;38004;-80
2022/12/15 06:43:55;;;;;;;32.67;19.53;;;-3.70;99.90;;;;;;5036636;28;37646;-78
2022/12/15 06:46:22;;;;;;;32.33;18.43;;;-3.70;99.90;;;;;;5033958;28;36665;-80
2022/12/15 06:48:55;;;;;;;30.37;18.17;;;-3.70;99.90;;;;;;5039402;28;37818;-80
2022/12/15 06:51:21;;;;;;;37.23;17.90;;;-3.70;99.90;;;;;;5033040;28;39024;-80
2022/12/15 06:53:48;;;;;;;31.90;19.50;;;-3.80;99.90;;;;;;5036099;28;37079;-79
2022/12/15 06:56:23;;;;;;;30.47;18.23;;;-3.80;99.90;;;;;;5030819;28;36945;-82
2022/12/15 06:58:51;;;;;;;29.73;18.13;;;-3.80;99.90;;;;;;5034983;28;36039;-80
2022/12/15 07:01:19;;;;;;;34.27;19.80;;;-3.80;99.90;;;;;;5031908;28;37623;-80
2022/12/15 07:03:53;;;;;;;31.03;18.70;;;-3.80;99.90;;;;;;5037068;28;37886;-80
2022/12/15 07:06:19;;;;;;;31.87;18.17;;;-3.90;99.90;;;;;;5041977;28;38213;-80
2022/12/15 07:08:51;;;;;;;29.03;16.60;;;-4.00;99.90;;;;;;5042678;28;37922;-79
2022/12/15 07:11:34;;;;;;;22.95;14.95;;;-4.00;99.90;;;;;;5033187;28;40776;-80
2022/12/15 07:14:01;;;;;;;34.27;18.70;;;-3.80;99.90;;;;;;5054950;22;40247;-81
2022/12/15 07:16:28;;;;;;;30.80;16.80;;;-3.90;99.90;;;;;;5045526;28;39095;-82
2022/12/15 07:18:54;;;;;;;35.27;20.63;;;-3.80;99.90;;;;;;5043036;28;37280;-80
2022/12/15 07:21:20;;;;;;;32.30;17.47;;;-3.70;99.90;;;;;;5045798;28;38559;-82
2022/12/15 07:23:47;;;;;;;32.80;19.50;;;-3.70;99.90;;;;;;5046945;28;38583;-81
2022/12/15 07:26:13;;;;;;;35.43;20.10;;;-3.70;99.90;;;;;;5046629;28;39170;-81
2022/12/15 07:28:39;;;;;;;33.13;21.20;;;-3.60;99.90;;;;;;5049250;28;38053;-80
2022/12/15 07:31:08;;;;;;;37.07;21.30;;;-3.50;99.90;;;;;;5042153;28;41008;-78
2022/12/15 07:33:35;;;;;;;41.27;23.83;;;-3.00;99.90;;;;;;5041070;28;38937;-80
2022/12/15 07:36:03;;;;;;;45.70;24.30;;;-2.90;99.90;;;;;;5040450;28;35575;-80
2022/12/15 07:38:29;;;;;;;37.73;23.80;;;-2.90;99.90;;;;;;5036634;28;37325;-81
2022/12/15 07:41:01;;;;;;;32.03;20.13;;;-2.70;99.90;;;;;;5031504;28;39333;-82
2022/12/15 07:43:29;;;;;;;40.17;23.07;;;-2.70;99.90;;;;;;5032054;28;37277;-78
2022/12/15 07:45:55;;;;;;;39.73;23.13;;;-2.40;99.90;;;;;;5012074;28;37488;-79
2022/12/15 07:48:22;;;;;;;43.53;26.13;;;-2.40;99.90;;;;;;5033668;28;37865;-81
2022/12/15 07:50:50;;;;;;;39.80;23.20;;;-2.40;99.90;;;;;;5050196;28;38729;-82
2022/12/15 07:53:16;;;;;;;39.40;22.93;;;-2.50;99.90;;;;;;5050722;28;37465;-81
2022/12/15 07:55:54;;;;;;;37.97;23.80;;;-2.40;99.90;;;;;;5050924;28;38646;-82
2022/12/15 07:58:21;;;;;;;36.17;22.00;;;-2.60;99.90;;;;;;5030198;28;39101;-82
2022/12/15 08:00:51;;;;;;;36.57;21.97;;;-2.60;99.90;;;;;;5053240;28;39455;-83
2022/12/15 08:03:17;;;;;;;36.97;22.60;;;-2.70;99.90;;;;;;5057307;28;38130;-82
2022/12/15 08:05:44;;;;;;;40.90;22.87;;;-2.70;99.90;;;;;;5053453;28;38490;-83
2022/12/15 08:08:10;;;;;;;35.17;21.37;;;-2.80;99.90;;;;;;5034110;28;40372;-81
2022/12/15 08:10:39;;;;;;;35.60;21.27;;;-2.80;99.90;;;;;;5026592;28;39541;-81
2022/12/15 08:13:06;;;;;;;42.10;22.13;;;-2.90;99.90;;;;;;5022157;28;38509;-81
2022/12/15 08:15:39;;;;;;;44.03;23.63;;;-3.00;99.90;;;;;;5027921;28;37716;-81
2022/12/15 08:18:07;;;;;;;40.47;21.13;;;-3.00;99.90;;;;;;5041941;28;36570;-81
2022/12/15 08:20:35;;;;;;;34.00;19.67;;;-3.00;99.90;;;;;;5047884;28;37866;-82
2022/12/15 08:23:02;;;;;;;33.00;20.33;;;-3.00;99.90;;;;;;5038471;28;38469;-82
2022/12/15 08:25:28;;;;;;;30.87;20.20;;;-3.00;99.90;;;;;;5045281;28;46216;-82
2022/12/15 08:27:55;;;;;;;38.00;21.87;;;-2.90;99.90;;;;;;5043888;28;36073;-82
2022/12/15 08:30:22;;;;;;;43.87;24.40;;;-2.50;99.90;;;;;;5046340;28;37971;-82
2022/12/15 08:32:48;;;;;;;47.30;27.90;;;-2.40;99.90;;;;;;5046207;28;37643;-82
2022/12/15 08:35:16;;;;;;;55.30;29.47;;;-2.30;99.90;;;;;;5043524;28;37751;-83
2022/12/15 08:37:42;;;;;;;46.93;27.30;;;-2.20;99.90;;;;;;5037337;28;37175;-82
2022/12/15 08:40:09;;;;;;;43.43;26.47;;;-2.20;99.90;;;;;;5036858;28;35978;-82
2022/12/15 08:42:37;;;;;;;55.20;30.90;;;-2.10;99.90;;;;;;5048071;28;37425;-83
2022/12/15 08:45:04;;;;;;;51.70;28.63;;;-2.00;99.90;;;;;;5048572;28;37256;-84
2022/12/15 08:47:30;;;;;;;56.03;29.50;;;-2.00;99.90;;;;;;5040641;28;46919;-83
2022/12/15 08:49:56;;;;;;;56.83;31.50;;;-1.90;99.90;;;;;;5039961;28;37698;-82
2022/12/15 08:52:44;;;;;;;48.23;28.60;;;-1.70;99.90;;;;;;5049533;28;36930;-83
2022/12/15 08:55:10;;;;;;;46.13;27.43;;;-1.50;99.90;;;;;;5050987;28;38349;-83
2022/12/15 08:57:38;;;;;;;57.23;30.77;;;-1.20;99.90;;;;;;5048898;28;37561;-82
2022/12/15 09:00:04;;;;;;;45.23;27.67;;;-1.10;99.90;;;;;;5049923;28;38957;-83
2022/12/15 09:02:31;;;;;;;49.87;30.20;;;-1.10;99.90;;;;;;5047011;28;37501;-82
2022/12/15 09:04:57;;;;;;;42.87;27.70;;;-1.10;99.90;;;;;;5048177;28;37302;-83
2022/12/15 09:07:23;;;;;;;51.20;29.00;;;-1.20;99.90;;;;;;5048357;28;38084;-83
2022/12/15 09:09:49;;;;;;;51.77;30.30;;;-1.30;99.90;;;;;;5047213;28;37686;-82
2022/12/15 09:12:23;;;;;;;49.77;30.07;;;-1.40;99.90;;;;;;5051388;28;38579;-83
2022/12/15 09:14:49;;;;;;;42.37;27.07;;;-1.50;99.90;;;;;;5050200;28;37850;-83
2022/12/15 09:17:15;;;;;;;48.50;30.17;;;-1.50;99.90;;;;;;5049045;28;36317;-83
2022/12/15 09:19:47;;;;;;;47.83;27.27;;;-1.50;99.90;;;;;;5049488;28;38741;-82
2022/12/15 09:22:14;;;;;;;49.53;29.63;;;-1.60;99.90;;;;;;5047615;28;39527;-83
2022/12/15 09:24:42;;;;;;;60.77;31.60;;;-1.50;99.90;;;;;;5048927;28;38707;-83
2022/12/15 09:27:08;;;;;;;47.67;26.90;;;-1.50;99.90;;;;;;5049002;28;37546;-82
2022/12/15 09:29:37;;;;;;;46.73;27.07;;;-1.40;99.90;;;;;;5047247;28;38702;-83
2022/12/15 09:32:03;;;;;;;50.47;31.37;;;-1.20;99.90;;;;;;5016848;28;37200;-78
2022/12/15 09:34:29;;;;;;;50.20;30.93;;;-0.70;99.90;;;;;;5027732;28;37913;-83
2022/12/15 09:36:55;;;;;;;53.47;32.60;;;-0.50;99.90;;;;;;5345503;22;37546;-77
2022/12/15 09:39:22;;;;;;;52.53;32.40;;;-0.50;99.90;;;;;;5055843;28;38647;-81
2022/12/15 09:41:57;;;;;;;55.57;35.07;;;-0.40;99.90;;;;;;5047535;28;37384;-76
2022/12/15 09:44:37;;;;;;;59.80;37.10;;;-0.30;99.90;;;;;;5044352;28;36522;-82
2022/12/15 09:49:50;;;;;;;59.87;34.87;;;-0.20;99.90;;;;;;5132771;22;20042;-83
2022/12/15 09:55:01;;;;;;;62.10;39.07;;;-0.10;99.90;;;;;;5377927;22;20034;-82
2022/12/15 10:00:39;;;;;;;76.43;41.20;;;0.10;99.90;;;;;;5339336;22;20053;-82
2022/12/15 10:03:14;;;;;;;70.20;40.73;;;0.20;99.90;;;;;;5047511;28;48168;-83
2022/12/15 10:06:18;;;;;;;68.77;42.93;;;0.20;99.90;;;;;;5068687;28;37964;-82
2022/12/15 10:11:55;;;;;;;73.80;43.20;;;0.30;99.90;;;;;;5150005;22;20952;-77
2022/12/15 10:14:36;;;;;;;70.13;41.20;;;0.30;99.90;;;;;;5020377;28;38587;-81
2022/12/15 10:17:21;;;;;;;88.50;48.77;;;0.40;99.90;;;;;;5032164;28;37794;-80
2022/12/15 10:19:47;;;;;;;81.43;48.70;;;0.40;99.90;;;;;;5026623;28;37230;-81
2022/12/15 10:22:20;;;;;;;75.90;44.67;;;0.40;99.90;;;;;;5012324;28;40045;-81
2022/12/15 10:24:53;;;;;;;;;;;0.50;99.90;;;;;;5028349;28;39577;-83
2022/12/15 10:27:49;;;;;;;70.82;44.58;;;0.60;99.90;;;;;;5041340;28;37843;-82
2022/12/15 10:30:16;;;;;;;67.03;42.70;;;0.60;99.90;;;;;;5045685;28;38885;-83
2022/12/15 10:33:34;;;;;;;75.40;46.93;;;0.70;99.90;;;;;;5166797;22;39063;-80
2022/12/15 10:38:44;;;;;;;64.07;40.90;;;0.90;99.90;;;;;;6166705;22;20029;-81
2022/12/15 10:41:15;;;;;;;71.27;42.97;;;0.90;99.90;;;;;;5020307;28;35620;-80
2022/12/15 10:43:48;;;;;;;87.60;48.57;;;1.00;99.90;;;;;;5049641;28;37903;-82
2022/12/15 10:46:23;;;;;;;66.13;40.53;;;1.10;99.90;;;;;;5035315;28;38093;-81
2022/12/15 10:51:41;;;;;;;65.47;39.77;;;1.30;99.90;;;;;;5516858;22;20037;-81
2022/12/15 10:54:11;;;;;;;60.80;38.93;;;1.40;99.90;;;;;;5048400;28;37764;-82
2022/12/15 10:56:50;;;;;;;59.23;36.07;;;1.50;99.90;;;;;;5037912;28;37858;-82
2022/12/15 10:59:31;;;;;;;61.47;38.10;;;1.60;99.90;;;;;;5040816;28;38201;-80
2022/12/15 11:02:20;;;;;;;60.23;38.30;;;1.60;99.90;;;;;;5035073;28;36399;-82
2022/12/15 11:04:58;;;;;;;60.83;37.23;;;1.70;99.90;;;;;;5015021;28;48004;-78
2022/12/15 11:07:33;;;;;;;53.57;34.30;;;1.70;99.90;;;;;;5025114;28;37171;-79
2022/12/15 11:10:06;;;;;;;53.60;36.27;;;1.80;99.90;;;;;;5023474;28;36538;-82
2022/12/15 11:12:51;;;;;;;59.73;37.67;;;1.80;99.90;;;;;;5022645;28;47161;-81
2022/12/15 11:15:20;;;;;;;53.77;35.87;;;1.80;99.90;;;;;;5017537;28;38450;-81
2022/12/15 11:17:53;;;;;;;54.27;35.93;;;1.90;99.90;;;;;;5021801;28;38235;-81
2022/12/15 11:20:31;;;;;;;58.27;36.53;;;2.00;99.90;;;;;;5021734;28;38427;-81
2022/12/15 11:23:04;;;;;;;55.07;36.23;;;2.20;99.90;;;;;;5019958;28;36369;-81
2022/12/15 11:25:43;;;;;;;55.73;34.40;;;2.30;99.90;;;;;;5022827;28;47419;-82
2022/12/15 11:28:21;;;;;;;50.93;34.33;;;2.30;99.90;;;;;;5021648;28;37217;-82
2022/12/15 11:31:04;;;;;;;58.10;37.83;;;2.50;99.90;;;;;;5017907;28;37111;-78
2022/12/15 11:33:30;;;;;;;46.47;29.93;;;2.50;99.90;;;;;;5022166;28;47087;-80
2022/12/15 11:36:09;;;;;;;52.10;30.40;;;2.60;99.90;;;;;;5042435;28;38882;-80
2022/12/15 11:38:55;;;;;;;55.40;34.63;;;2.60;99.90;;;;;;5045153;28;48844;-80
2022/12/15 11:41:52;;;;;;;48.60;30.27;;;2.70;99.90;;;;;;5034286;28;36917;-81
2022/12/15 11:44:26;;;;;;;44.87;28.97;;;2.70;99.90;;;;;;5028591;28;37220;-81
2022/12/15 11:47:32;;;;;;;41.77;27.73;;;2.90;99.90;;;;;;5038433;28;40271;-83
2022/12/15 11:50:14;;;;;;;45.93;27.40;;;3.00;99.90;;;;;;5040553;28;49341;-83
2022/12/15 11:52:59;;;;;;;37.80;24.13;;;3.20;99.90;;;;;;5031797;28;47211;-83
2022/12/15 11:55:59;;;;;;;35.63;22.60;;;3.40;99.90;;;;;;5027351;28;36421;-83
2022/12/15 11:58:49;;;;;;;31.90;20.70;;;3.50;99.90;;;;;;5022844;28;39098;-80
2022/12/15 12:01:15;;;;;;;32.70;18.77;;;3.50;99.90;;;;;;5013223;28;37507;-78
2022/12/15 12:03:56;;;;;;;25.90;18.17;;;3.50;99.90;;;;;;4998984;28;39158;-81
2022/12/15 12:06:44;;;;;;;23.00;16.60;;;3.50;99.90;;;;;;5014288;28;36388;-81
2022/12/15 12:09:50;;;;;;;28.37;17.90;;;3.50;99.90;;;;;;5017385;28;38391;-81
2022/12/15 12:12:32;;;;;;;25.97;18.33;;;3.60;99.90;;;;;;5020436;28;37753;-78
2022/12/15 12:15:36;;;;;;;29.70;17.07;;;3.60;99.90;;;;;;5010234;28;38486;-79
2022/12/15 12:18:30;;;;;;;27.97;18.87;;;3.60;99.90;;;;;;5010471;28;47271;-81
2022/12/15 12:21:08;;;;;;;28.90;18.57;;;3.50;99.90;;;;;;5009795;28;46514;-79
2022/12/15 12:24:05;;;;;;;32.37;18.17;;;3.60;99.90;;;;;;5013524;28;48308;-81
2022/12/15 12:26:37;;;;;;;26.27;16.67;;;3.70;99.90;;;;;;5016490;28;47095;-81
2022/12/15 12:29:33;;;;;;;28.85;17.40;;;3.60;99.90;;;;;;5012388;28;36353;-81
2022/12/15 12:32:11;;;;;;;25.87;16.23;;;3.60;99.90;;;;;;5011549;28;47124;-81
2022/12/15 12:34:55;;;;;;;25.77;14.67;;;3.60;99.90;;;;;;5012331;28;46663;-78
2022/12/15 12:37:46;;;;;;;22.23;14.83;;;3.50;99.90;;;;;;5016423;28;37869;-81
2022/12/15 12:40:18;;;;;;;26.67;16.47;;;3.50;99.90;;;;;;5017851;28;37383;-82
2022/12/15 12:42:55;;;;;;;21.10;13.68;;;3.50;99.90;;;;;;5027932;28;37638;-82
2022/12/15 12:45:43;;;;;;;21.40;12.33;;;3.50;99.90;;;;;;5020028;28;38104;-79
2022/12/15 12:48:21;;;;;;;18.00;11.23;;;3.60;99.90;;;;;;5022888;28;39081;-79
2022/12/15 12:50:47;;;;;;;16.07;11.33;;;3.60;99.90;;;;;;5027699;28;36390;-78
2022/12/15 12:53:42;;;;;;;17.77;11.57;;;3.60;99.90;;;;;;5026338;28;38567;-78
2022/12/15 12:56:28;;;;;;;17.50;10.47;;;3.60;99.90;;;;;;5017853;28;38423;-78
2022/12/15 12:58:54;;;;;;;15.77;9.40;;;3.60;99.90;;;;;;5027883;28;38189;-78
2022/12/15 13:01:32;;;;;;;9.60;7.27;;;3.70;99.90;;;;;;5025154;28;37515;-79
2022/12/15 13:04:29;;;;;;;12.27;5.53;;;3.70;99.90;;;;;;5027806;28;38821;-79
2022/12/15 13:06:58;;;;;;;10.47;5.83;;;3.70;99.90;;;;;;5026809;28;46995;-78
2022/12/15 13:10:02;;;;;;;9.30;4.23;;;3.80;99.90;;;;;;5021026;28;37885;-81
2022/12/15 13:12:52;;;;;;;6.37;3.87;;;3.80;99.90;;;;;;5005429;28;37217;-77
2022/12/15 13:15:36;;;;;;;13.00;3.50;;;3.80;99.90;;;;;;5026300;28;39136;-78
2022/12/15 13:18:19;;;;;;;8.93;2.60;;;3.80;99.90;;;;;;5025883;28;38928;-78
2022/12/15 13:20:47;;;;;;;8.73;1.52;;;3.90;99.90;;;;;;5021471;28;47254;-78
2022/12/15 13:23:22;;;;;;;4.37;1.10;;;3.90;99.90;;;;;;5029212;28;37040;-78
2022/12/15 13:26:09;;;;;;;2.93;1.00;;;3.90;99.90;;;;;;5026505;28;38989;-78
2022/12/15 13:28:37;;;;;;;4.10;1.00;;;3.90;99.90;;;;;;5017288;28;47163;-80
2022/12/15 13:31:15;;;;;;;3.63;0.83;;;3.90;99.90;;;;;;5035098;28;39062;-78
2022/12/15 13:33:51;;;;;;;1.73;0.83;;;3.90;99.90;;;;;;5026913;28;47252;-82
2022/12/15 13:36:36;;;;;;;6.87;3.70;;;3.90;99.90;;;;;;5031392;28;37736;-80
2022/12/15 13:39:26;;;;;;;7.23;4.60;;;4.00;99.90;;;;;;5047261;28;39925;-78
2022/12/15 13:42:05;;;;;;;12.83;4.63;;;4.00;99.90;;;;;;5049882;28;37385;-80
2022/12/15 13:44:34;;;;;;;9.67;4.43;;;4.00;99.90;;;;;;5040628;28;49587;-81
2022/12/15 13:47:15;;;;;;;9.93;5.33;;;4.00;99.90;;;;;;5047557;28;37610;-81
2022/12/15 13:49:47;;;;;;;8.83;4.70;;;3.90;99.90;;;;;;5047966;28;48058;-81
2022/12/15 13:52:22;;;;;;;11.67;5.73;;;3.90;99.90;;;;;;5050031;28;38456;-81
2022/12/15 13:55:21;;;;;;;9.73;4.77;;;4.00;99.90;;;;;;5048839;28;37299;-82
2022/12/15 13:57:55;;;;;;;9.07;4.67;;;4.00;99.90;;;;;;5042831;28;47881;-82
2022/12/15 14:00:22;;;;;;;11.00;4.10;;;3.90;99.90;;;;;;5053530;28;37335;-82
2022/12/15 14:02:48;;;;;;;10.10;4.73;;;4.00;99.90;;;;;;5051301;28;36997;-82
2022/12/15 14:05:17;;;;;;;8.77;4.87;;;4.00;99.90;;;;;;5042967;28;35874;-80
2022/12/15 14:07:46;;;;;;;12.60;5.77;;;3.90;99.90;;;;;;5040403;28;37935;-82
2022/12/15 14:10:23;;;;;;;16.07;7.03;;;3.90;99.90;;;;;;5025763;28;38486;-80
2022/12/15 14:12:51;;;;;;;22.60;14.53;;;3.80;99.90;;;;;;5022460;28;37673;-80
2022/12/15 14:15:21;;;;;;;30.77;20.73;;;3.80;99.90;;;;;;5027715;28;36964;-81
2022/12/15 14:17:51;;;;;;;34.63;23.40;;;3.80;99.90;;;;;;5031776;28;37827;-80
2022/12/15 14:20:23;;;;;;;40.90;26.17;;;3.60;99.90;;;;;;5029462;28;38590;-80
2022/12/15 14:22:53;;;;;;;40.67;27.00;;;3.60;99.90;;;;;;5034734;28;20465;-81
2022/12/15 14:25:22;;;;;;;41.13;28.13;;;3.50;99.90;;;;;;5032973;28;36414;-81
2022/12/15 14:27:49;;;;;;;45.87;30.03;;;3.40;99.90;;;;;;5028589;28;36660;-80
2022/12/15 14:30:18;;;;;;;50.70;28.53;;;3.30;99.90;;;;;;5027631;28;37525;-80
2022/12/15 14:33:06;;;;;;;39.80;26.67;;;3.20;99.90;;;;;;5025237;28;36938;-80
2022/12/15 14:35:41;;;;;;;37.87;25.37;;;3.10;99.90;;;;;;5035483;28;47157;-80
2022/12/15 14:38:19;;;;;;;41.53;27.60;;;3.10;99.90;;;;;;5038171;28;41390;-81
2022/12/15 14:40:48;;;;;;;38.80;28.27;;;3.10;99.90;;;;;;5035797;28;37443;-81
2022/12/15 14:43:28;;;;;;;52.07;34.20;;;3.10;99.90;;;;;;5040468;28;38166;-83
2022/12/15 14:46:04;;;;;;;52.07;34.60;;;3.10;99.90;;;;;;5037996;28;37909;-83
2022/12/15 14:48:36;;;;;;;56.50;37.90;;;3.00;99.90;;;;;;5039302;28;48557;-83
2022/12/15 14:51:04;;;;;;;59.15;38.92;;;2.80;99.90;;;;;;5037952;28;38273;-83
2022/12/15 14:53:36;;;;;;;57.00;37.30;;;2.60;99.90;;;;;;5039983;28;37455;-82
2022/12/15 14:56:14;;;;;;;53.08;36.47;;;2.50;99.90;;;;;;5063147;28;36083;-82
2022/12/15 14:58:40;;;;;;;61.00;39.57;;;2.30;99.90;;;;;;5050807;28;46856;-81
2022/12/15 15:01:25;;;;;;;63.23;41.47;;;2.30;99.90;;;;;;5045932;28;37317;-77
2022/12/15 15:04:00;;;;;;;68.87;42.70;;;2.20;99.90;;;;;;5036235;28;38321;-81
2022/12/15 15:06:39;;;;;;;59.33;37.70;;;2.00;99.90;;;;;;5032111;28;37209;-81
2022/12/15 15:09:25;;;;;;;57.77;40.77;;;1.90;99.90;;;;;;5032796;28;39421;-80
2022/12/15 15:12:05;;;;;;;75.73;43.27;;;1.80;99.90;;;;;;5041720;28;39161;-82
2022/12/15 15:14:37;;;;;;;68.07;46.03;;;1.80;99.90;;;;;;5031393;28;49151;-82
2022/12/15 15:17:13;;;;;;;73.32;45.25;;;1.80;99.90;;;;;;5041073;28;38849;-81
2022/12/15 15:20:11;;;;;;;73.57;48.97;;;1.80;99.90;;;;;;5038743;28;38979;-81
2022/12/15 15:22:45;;;;;;;67.03;43.23;;;1.70;99.90;;;;;;5034603;28;47106;-81
2022/12/15 15:25:46;;;;;;;74.03;48.60;;;1.60;99.90;;;;;;5040671;28;36504;-81
2022/12/15 15:28:18;;;;;;;69.40;43.77;;;1.60;99.90;;;;;;5039186;28;36379;-84
2022/12/15 15:30:50;;;;;;;71.00;47.38;;;1.60;99.90;;;;;;5041449;28;38698;-82
2022/12/15 15:33:17;;;;;;;69.47;43.97;;;1.50;99.90;;;;;;5037306;28;39270;-82
2022/12/15 15:35:45;;;;;;;69.50;45.80;;;1.40;99.90;;;;;;5034136;28;38551;-81
2022/12/15 15:38:25;;;;;;;78.70;46.70;;;1.40;99.90;;;;;;5040861;28;37224;-81
2022/12/15 15:40:53;;;;;;;83.90;49.27;;;1.40;99.90;;;;;;5040163;28;38828;-81
2022/12/15 15:43:20;;;;;;;82.40;49.87;;;1.40;99.90;;;;;;5041646;28;37590;-82